sensor_id;sensor_type;location;lat;lon;timestamp;P1;durP1;ratioP1;P2;durP2;ratioP2
74363;SDS011;62797;49.740;10.154;2023-07-20T00:02:19;17.43;;;5.23;;
74363;SDS011;62797;49.740;10.154;2023-07-20T00:04:47;10.88;;;4.47;;
74363;SDS011;62797;49.740;10.154;2023-07-20T00:07:12;12.57;;;6.00;;
74363;SDS011;62797;49.740;10.154;2023-07-20T00:09:38;12.55;;;4.65;;
74363;SDS011;62797;49.740;10.154;2023-07-20T00:12:04;10.20;;;3.83;;
74363;SDS011;62797;49.740;10.154;2023-07-20T00:14:30;7.93;;;3.70;;
74363;SDS011;62797;49.740;10.154;2023-07-20T00:16:57;10.95;;;4.43;;
74363;SDS011;62797;49.740;10.154;2023-07-20T00:19:23;8.80;;;3.87;;
74363;SDS011;62797;49.740;10.154;2023-07-20T00:21:52;9.35;;;3.45;;
74363;SDS011;62797;49.740;10.154;2023-07-20T00:24:19;9.60;;;4.00;;
74363;SDS011;62797;49.740;10.154;2023-07-20T00:26:45;12.55;;;4.32;;
74363;SDS011;62797;49.740;10.154;2023-07-20T00:29:11;11.02;;;4.22;;
74363;SDS011;62797;49.740;10.154;2023-07-20T00:31:40;12.98;;;4.07;;
74363;SDS011;62797;49.740;10.154;2023-07-20T00:34:06;6.60;;;3.83;;
74363;SDS011;62797;49.740;10.154;2023-07-20T00:36:32;10.55;;;3.60;;
74363;SDS011;62797;49.740;10.154;2023-07-20T00:39:00;14.45;;;4.50;;
74363;SDS011;62797;49.740;10.154;2023-07-20T00:41:28;15.88;;;5.80;;
74363;SDS011;62797;49.740;10.154;2023-07-20T00:43:55;8.57;;;3.72;;
74363;SDS011;62797;49.740;10.154;2023-07-20T00:46:22;8.82;;;3.70;;
74363;SDS011;62797;49.740;10.154;2023-07-20T00:48:51;7.57;;;3.58;;
74363;SDS011;62797;49.740;10.154;2023-07-20T00:51:19;5.82;;;3.13;;
74363;SDS011;62797;49.740;10.154;2023-07-20T00:53:46;9.93;;;3.88;;
74363;SDS011;62797;49.740;10.154;2023-07-20T00:56:12;7.75;;;3.55;;
74363;SDS011;62797;49.740;10.154;2023-07-20T00:58:38;7.15;;;3.92;;
74363;SDS011;62797;49.740;10.154;2023-07-20T01:01:06;6.53;;;3.73;;
74363;SDS011;62797;49.740;10.154;2023-07-20T01:03:32;7.72;;;3.65;;
74363;SDS011;62797;49.740;10.154;2023-07-20T01:11:51;9.90;;;3.90;;
74363;SDS011;62797;49.740;10.154;2023-07-20T01:14:24;9.20;;;3.60;;
74363;SDS011;62797;49.740;10.154;2023-07-20T01:16:51;7.35;;;4.03;;
74363;SDS011;62797;49.740;10.154;2023-07-20T01:19:19;8.40;;;3.38;;
74363;SDS011;62797;49.740;10.154;2023-07-20T01:21:51;9.30;;;3.65;;
74363;SDS011;62797;49.740;10.154;2023-07-20T01:33:03;11.15;;;4.00;;
74363;SDS011;62797;49.740;10.154;2023-07-20T01:35:32;5.68;;;3.50;;
74363;SDS011;62797;49.740;10.154;2023-07-20T01:37:58;7.40;;;3.40;;
74363;SDS011;62797;49.740;10.154;2023-07-20T01:40:25;10.35;;;3.60;;
74363;SDS011;62797;49.740;10.154;2023-07-20T01:42:52;10.52;;;4.28;;
74363;SDS011;62797;49.740;10.154;2023-07-20T01:47:44;8.68;;;3.65;;
74363;SDS011;62797;49.740;10.154;2023-07-20T01:50:10;13.70;;;3.83;;
74363;SDS011;62797;49.740;10.154;2023-07-20T01:52:35;12.57;;;3.63;;
74363;SDS011;62797;49.740;10.154;2023-07-20T01:55:02;9.25;;;4.00;;
74363;SDS011;62797;49.740;10.154;2023-07-20T01:57:30;15.45;;;4.35;;
74363;SDS011;62797;49.740;10.154;2023-07-20T01:59:56;12.98;;;4.43;;
74363;SDS011;62797;49.740;10.154;2023-07-20T02:02:23;14.70;;;4.33;;
74363;SDS011;62797;49.740;10.154;2023-07-20T02:04:51;10.65;;;5.20;;
74363;SDS011;62797;49.740;10.154;2023-07-20T02:07:17;11.20;;;4.03;;
74363;SDS011;62797;49.740;10.154;2023-07-20T02:09:43;8.77;;;4.50;;
74363;SDS011;62797;49.740;10.154;2023-07-20T02:12:08;11.37;;;4.47;;
74363;SDS011;62797;49.740;10.154;2023-07-20T02:14:34;12.50;;;3.70;;
74363;SDS011;62797;49.740;10.154;2023-07-20T02:17:00;7.47;;;4.53;;
74363;SDS011;62797;49.740;10.154;2023-07-20T02:19:27;10.98;;;5.03;;
74363;SDS011;62797;49.740;10.154;2023-07-20T02:21:55;12.68;;;3.95;;
74363;SDS011;62797;49.740;10.154;2023-07-20T02:24:20;9.27;;;4.27;;
74363;SDS011;62797;49.740;10.154;2023-07-20T02:26:46;18.20;;;4.83;;
74363;SDS011;62797;49.740;10.154;2023-07-20T02:29:14;8.45;;;4.00;;
74363;SDS011;62797;49.740;10.154;2023-07-20T02:31:40;10.48;;;3.72;;
74363;SDS011;62797;49.740;10.154;2023-07-20T02:34:08;10.85;;;3.72;;
74363;SDS011;62797;49.740;10.154;2023-07-20T02:36:34;15.32;;;3.92;;
74363;SDS011;62797;49.740;10.154;2023-07-20T02:39:00;12.15;;;4.45;;
74363;SDS011;62797;49.740;10.154;2023-07-20T02:41:29;8.07;;;3.88;;
74363;SDS011;62797;49.740;10.154;2023-07-20T02:43:58;8.93;;;3.78;;
74363;SDS011;62797;49.740;10.154;2023-07-20T02:46:24;5.95;;;4.25;;
74363;SDS011;62797;49.740;10.154;2023-07-20T02:48:50;7.30;;;3.95;;
74363;SDS011;62797;49.740;10.154;2023-07-20T02:51:15;19.77;;;4.77;;
74363;SDS011;62797;49.740;10.154;2023-07-20T02:53:41;13.77;;;3.77;;
74363;SDS011;62797;49.740;10.154;2023-07-20T02:56:07;15.15;;;3.78;;
74363;SDS011;62797;49.740;10.154;2023-07-20T02:58:33;11.97;;;4.23;;
74363;SDS011;62797;49.740;10.154;2023-07-20T03:01:03;15.52;;;4.82;;
74363;SDS011;62797;49.740;10.154;2023-07-20T03:03:29;6.60;;;4.07;;
74363;SDS011;62797;49.740;10.154;2023-07-20T03:05:55;8.23;;;3.60;;
74363;SDS011;62797;49.740;10.154;2023-07-20T03:08:24;8.05;;;3.67;;
74363;SDS011;62797;49.740;10.154;2023-07-20T03:10:50;9.13;;;3.75;;
74363;SDS011;62797;49.740;10.154;2023-07-20T03:13:16;7.93;;;4.37;;
74363;SDS011;62797;49.740;10.154;2023-07-20T03:15:42;11.95;;;3.28;;
74363;SDS011;62797;49.740;10.154;2023-07-20T03:18:08;14.23;;;3.80;;
74363;SDS011;62797;49.740;10.154;2023-07-20T03:20:35;9.23;;;4.32;;
74363;SDS011;62797;49.740;10.154;2023-07-20T03:23:01;9.27;;;4.25;;
74363;SDS011;62797;49.740;10.154;2023-07-20T03:25:27;9.02;;;4.35;;
74363;SDS011;62797;49.740;10.154;2023-07-20T03:27:53;5.57;;;3.90;;
74363;SDS011;62797;49.740;10.154;2023-07-20T03:30:19;8.13;;;3.70;;
74363;SDS011;62797;49.740;10.154;2023-07-20T03:32:45;4.50;;;3.40;;
74363;SDS011;62797;49.740;10.154;2023-07-20T03:35:10;7.50;;;3.80;;
74363;SDS011;62797;49.740;10.154;2023-07-20T03:37:36;8.67;;;4.27;;
74363;SDS011;62797;49.740;10.154;2023-07-20T03:40:03;9.20;;;4.97;;
74363;SDS011;62797;49.740;10.154;2023-07-20T03:42:30;11.60;;;3.88;;
74363;SDS011;62797;49.740;10.154;2023-07-20T03:44:56;5.07;;;3.88;;
74363;SDS011;62797;49.740;10.154;2023-07-20T03:47:24;6.90;;;3.37;;
74363;SDS011;62797;49.740;10.154;2023-07-20T03:49:50;7.50;;;5.05;;
74363;SDS011;62797;49.740;10.154;2023-07-20T03:52:15;14.38;;;4.10;;
74363;SDS011;62797;49.740;10.154;2023-07-20T03:54:41;9.00;;;5.03;;
74363;SDS011;62797;49.740;10.154;2023-07-20T03:57:09;60.13;;;5.10;;
74363;SDS011;62797;49.740;10.154;2023-07-20T03:59:36;25.60;;;4.50;;
74363;SDS011;62797;49.740;10.154;2023-07-20T04:02:02;10.98;;;4.00;;
74363;SDS011;62797;49.740;10.154;2023-07-20T04:04:30;11.93;;;4.10;;
74363;SDS011;62797;49.740;10.154;2023-07-20T04:06:56;9.18;;;4.68;;
74363;SDS011;62797;49.740;10.154;2023-07-20T04:09:22;14.50;;;4.10;;
74363;SDS011;62797;49.740;10.154;2023-07-20T04:11:47;12.57;;;3.77;;
74363;SDS011;62797;49.740;10.154;2023-07-20T04:14:13;7.50;;;3.83;;
74363;SDS011;62797;49.740;10.154;2023-07-20T04:16:39;9.80;;;3.83;;
74363;SDS011;62797;49.740;10.154;2023-07-20T04:19:05;8.90;;;4.25;;
74363;SDS011;62797;49.740;10.154;2023-07-20T04:21:30;19.08;;;4.80;;
74363;SDS011;62797;49.740;10.154;2023-07-20T04:23:59;8.63;;;3.58;;
74363;SDS011;62797;49.740;10.154;2023-07-20T04:26:25;8.25;;;4.05;;
74363;SDS011;62797;49.740;10.154;2023-07-20T04:28:51;5.53;;;3.20;;
74363;SDS011;62797;49.740;10.154;2023-07-20T04:31:30;16.13;;;3.60;;
74363;SDS011;62797;49.740;10.154;2023-07-20T04:33:58;7.88;;;3.90;;
74363;SDS011;62797;49.740;10.154;2023-07-20T04:36:24;6.35;;;3.42;;
74363;SDS011;62797;49.740;10.154;2023-07-20T04:38:51;8.50;;;3.70;;
74363;SDS011;62797;49.740;10.154;2023-07-20T04:41:18;7.55;;;3.47;;
74363;SDS011;62797;49.740;10.154;2023-07-20T04:43:47;16.23;;;3.80;;
74363;SDS011;62797;49.740;10.154;2023-07-20T04:46:17;13.57;;;4.07;;
74363;SDS011;62797;49.740;10.154;2023-07-20T04:48:45;8.13;;;4.50;;
74363;SDS011;62797;49.740;10.154;2023-07-20T04:51:13;14.57;;;5.57;;
74363;SDS011;62797;49.740;10.154;2023-07-20T04:53:39;7.97;;;3.63;;
74363;SDS011;62797;49.740;10.154;2023-07-20T04:56:07;7.47;;;2.97;;
74363;SDS011;62797;49.740;10.154;2023-07-20T04:58:33;12.95;;;3.72;;
74363;SDS011;62797;49.740;10.154;2023-07-20T05:00:59;10.03;;;3.97;;
74363;SDS011;62797;49.740;10.154;2023-07-20T05:03:25;9.75;;;3.70;;
74363;SDS011;62797;49.740;10.154;2023-07-20T05:05:51;14.77;;;4.00;;
74363;SDS011;62797;49.740;10.154;2023-07-20T05:08:17;8.77;;;4.23;;
74363;SDS011;62797;49.740;10.154;2023-07-20T05:10:43;11.50;;;2.95;;
74363;SDS011;62797;49.740;10.154;2023-07-20T05:13:09;9.40;;;3.03;;
74363;SDS011;62797;49.740;10.154;2023-07-20T05:15:35;8.05;;;3.88;;
74363;SDS011;62797;49.740;10.154;2023-07-20T05:18:02;6.30;;;2.90;;
74363;SDS011;62797;49.740;10.154;2023-07-20T05:20:28;9.88;;;3.60;;
74363;SDS011;62797;49.740;10.154;2023-07-20T05:22:54;11.00;;;4.20;;
74363;SDS011;62797;49.740;10.154;2023-07-20T05:25:19;7.37;;;3.70;;
74363;SDS011;62797;49.740;10.154;2023-07-20T05:27:47;8.68;;;3.70;;
74363;SDS011;62797;49.740;10.154;2023-07-20T05:30:16;11.85;;;3.47;;
74363;SDS011;62797;49.740;10.154;2023-07-20T05:32:42;5.90;;;3.40;;
74363;SDS011;62797;49.740;10.154;2023-07-20T05:35:07;5.07;;;3.13;;
74363;SDS011;62797;49.740;10.154;2023-07-20T05:37:34;12.30;;;3.58;;
74363;SDS011;62797;49.740;10.154;2023-07-20T05:39:59;8.17;;;3.20;;
74363;SDS011;62797;49.740;10.154;2023-07-20T05:42:25;6.13;;;3.23;;
74363;SDS011;62797;49.740;10.154;2023-07-20T05:44:51;10.30;;;3.70;;
74363;SDS011;62797;49.740;10.154;2023-07-20T05:47:18;10.02;;;3.65;;
74363;SDS011;62797;49.740;10.154;2023-07-20T05:49:45;16.73;;;3.30;;
74363;SDS011;62797;49.740;10.154;2023-07-20T05:52:11;5.27;;;3.20;;
74363;SDS011;62797;49.740;10.154;2023-07-20T05:54:37;10.70;;;3.80;;
74363;SDS011;62797;49.740;10.154;2023-07-20T05:57:03;9.40;;;4.32;;
74363;SDS011;62797;49.740;10.154;2023-07-20T05:59:28;16.20;;;5.70;;
74363;SDS011;62797;49.740;10.154;2023-07-20T06:01:54;10.07;;;3.40;;
74363;SDS011;62797;49.740;10.154;2023-07-20T06:04:20;13.00;;;4.38;;
74363;SDS011;62797;49.740;10.154;2023-07-20T06:06:46;6.07;;;3.00;;
74363;SDS011;62797;49.740;10.154;2023-07-20T06:09:11;5.93;;;3.07;;
74363;SDS011;62797;49.740;10.154;2023-07-20T06:11:38;8.07;;;4.20;;
74363;SDS011;62797;49.740;10.154;2023-07-20T06:14:04;9.05;;;3.53;;
74363;SDS011;62797;49.740;10.154;2023-07-20T06:16:30;6.70;;;3.25;;
74363;SDS011;62797;49.740;10.154;2023-07-20T06:18:55;10.27;;;3.37;;
74363;SDS011;62797;49.740;10.154;2023-07-20T06:21:21;15.07;;;3.72;;
74363;SDS011;62797;49.740;10.154;2023-07-20T06:23:47;8.87;;;4.10;;
74363;SDS011;62797;49.740;10.154;2023-07-20T06:26:13;13.43;;;3.40;;
74363;SDS011;62797;49.740;10.154;2023-07-20T06:28:38;11.30;;;3.37;;
74363;SDS011;62797;49.740;10.154;2023-07-20T06:31:04;5.60;;;2.93;;
74363;SDS011;62797;49.740;10.154;2023-07-20T06:33:30;9.77;;;3.17;;
74363;SDS011;62797;49.740;10.154;2023-07-20T06:35:55;7.67;;;4.00;;
74363;SDS011;62797;49.740;10.154;2023-07-20T06:38:22;15.43;;;3.42;;
74363;SDS011;62797;49.740;10.154;2023-07-20T06:40:51;5.03;;;2.72;;
74363;SDS011;62797;49.740;10.154;2023-07-20T06:43:17;8.07;;;3.65;;
74363;SDS011;62797;49.740;10.154;2023-07-20T06:45:43;10.23;;;3.42;;
74363;SDS011;62797;49.740;10.154;2023-07-20T06:48:09;9.25;;;3.58;;
74363;SDS011;62797;49.740;10.154;2023-07-20T06:50:35;16.88;;;4.50;;
74363;SDS011;62797;49.740;10.154;2023-07-20T06:53:01;10.35;;;3.50;;
74363;SDS011;62797;49.740;10.154;2023-07-20T06:55:31;8.15;;;3.45;;
74363;SDS011;62797;49.740;10.154;2023-07-20T06:57:57;9.63;;;3.90;;
74363;SDS011;62797;49.740;10.154;2023-07-20T07:00:22;11.17;;;3.17;;
74363;SDS011;62797;49.740;10.154;2023-07-20T07:02:48;5.90;;;2.80;;
74363;SDS011;62797;49.740;10.154;2023-07-20T07:05:14;5.77;;;3.13;;
74363;SDS011;62797;49.740;10.154;2023-07-20T07:07:40;8.57;;;3.40;;
74363;SDS011;62797;49.740;10.154;2023-07-20T07:10:07;6.07;;;3.08;;
74363;SDS011;62797;49.740;10.154;2023-07-20T07:12:33;10.38;;;4.28;;
74363;SDS011;62797;49.740;10.154;2023-07-20T07:14:59;8.38;;;3.40;;
74363;SDS011;62797;49.740;10.154;2023-07-20T07:17:25;5.90;;;3.20;;
74363;SDS011;62797;49.740;10.154;2023-07-20T07:19:51;9.43;;;3.50;;
74363;SDS011;62797;49.740;10.154;2023-07-20T07:22:19;19.98;;;4.00;;
74363;SDS011;62797;49.740;10.154;2023-07-20T07:24:48;9.15;;;3.72;;
74363;SDS011;62797;49.740;10.154;2023-07-20T07:27:14;7.32;;;3.33;;
74363;SDS011;62797;49.740;10.154;2023-07-20T07:29:42;11.85;;;3.10;;
74363;SDS011;62797;49.740;10.154;2023-07-20T07:32:11;6.32;;;2.88;;
74363;SDS011;62797;49.740;10.154;2023-07-20T07:34:40;13.57;;;3.95;;
74363;SDS011;62797;49.740;10.154;2023-07-20T07:37:05;7.88;;;3.00;;
74363;SDS011;62797;49.740;10.154;2023-07-20T07:39:31;5.72;;;2.90;;
74363;SDS011;62797;49.740;10.154;2023-07-20T07:41:57;8.97;;;3.33;;
74363;SDS011;62797;49.740;10.154;2023-07-20T07:44:23;7.33;;;3.10;;
74363;SDS011;62797;49.740;10.154;2023-07-20T07:46:49;10.88;;;3.85;;
74363;SDS011;62797;49.740;10.154;2023-07-20T07:49:15;9.88;;;3.38;;
74363;SDS011;62797;49.740;10.154;2023-07-20T07:51:41;6.22;;;2.67;;
74363;SDS011;62797;49.740;10.154;2023-07-20T07:54:07;9.80;;;3.20;;
74363;SDS011;62797;49.740;10.154;2023-07-20T07:56:33;13.27;;;3.53;;
74363;SDS011;62797;49.740;10.154;2023-07-20T07:58:58;4.80;;;2.80;;
74363;SDS011;62797;49.740;10.154;2023-07-20T08:01:24;8.90;;;2.80;;
74363;SDS011;62797;49.740;10.154;2023-07-20T08:03:50;15.30;;;3.00;;
74363;SDS011;62797;49.740;10.154;2023-07-20T08:06:16;5.60;;;2.67;;
74363;SDS011;62797;49.740;10.154;2023-07-20T08:08:42;9.67;;;3.00;;
74363;SDS011;62797;49.740;10.154;2023-07-20T08:11:07;7.40;;;2.77;;
74363;SDS011;62797;49.740;10.154;2023-07-20T08:13:33;7.53;;;2.75;;
74363;SDS011;62797;49.740;10.154;2023-07-20T08:16:00;7.85;;;2.90;;
74363;SDS011;62797;49.740;10.154;2023-07-20T08:18:27;12.95;;;3.42;;
74363;SDS011;62797;49.740;10.154;2023-07-20T08:20:53;6.18;;;3.08;;
74363;SDS011;62797;49.740;10.154;2023-07-20T08:23:19;2.83;;;2.13;;
74363;SDS011;62797;49.740;10.154;2023-07-20T08:25:45;7.65;;;2.47;;
74363;SDS011;62797;49.740;10.154;2023-07-20T08:28:11;4.35;;;2.45;;
74363;SDS011;62797;49.740;10.154;2023-07-20T08:30:42;8.52;;;3.38;;
74363;SDS011;62797;49.740;10.154;2023-07-20T08:33:09;7.85;;;2.53;;
74363;SDS011;62797;49.740;10.154;2023-07-20T08:35:36;11.05;;;2.53;;
74363;SDS011;62797;49.740;10.154;2023-07-20T08:38:02;4.65;;;2.88;;
74363;SDS011;62797;49.740;10.154;2023-07-20T08:40:33;6.13;;;2.38;;
74363;SDS011;62797;49.740;10.154;2023-07-20T08:43:03;10.60;;;2.95;;
74363;SDS011;62797;49.740;10.154;2023-07-20T08:45:33;7.10;;;2.80;;
74363;SDS011;62797;49.740;10.154;2023-07-20T08:48:00;8.90;;;2.60;;
74363;SDS011;62797;49.740;10.154;2023-07-20T08:50:31;6.03;;;3.20;;
74363;SDS011;62797;49.740;10.154;2023-07-20T08:52:57;4.45;;;2.20;;
74363;SDS011;62797;49.740;10.154;2023-07-20T08:55:26;6.00;;;2.53;;
74363;SDS011;62797;49.740;10.154;2023-07-20T08:57:57;5.82;;;2.97;;
74363;SDS011;62797;49.740;10.154;2023-07-20T09:00:26;4.97;;;2.22;;
74363;SDS011;62797;49.740;10.154;2023-07-20T09:02:54;5.53;;;2.45;;
74363;SDS011;62797;49.740;10.154;2023-07-20T09:05:22;10.25;;;2.15;;
74363;SDS011;62797;49.740;10.154;2023-07-20T09:07:49;5.90;;;2.85;;
74363;SDS011;62797;49.740;10.154;2023-07-20T09:10:16;9.82;;;2.40;;
74363;SDS011;62797;49.740;10.154;2023-07-20T09:12:42;6.28;;;1.63;;
74363;SDS011;62797;49.740;10.154;2023-07-20T09:15:09;4.10;;;2.88;;
74363;SDS011;62797;49.740;10.154;2023-07-20T09:17:36;8.00;;;2.17;;
74363;SDS011;62797;49.740;10.154;2023-07-20T09:20:06;9.02;;;2.60;;
74363;SDS011;62797;49.740;10.154;2023-07-20T09:22:35;6.97;;;2.88;;
74363;SDS011;62797;49.740;10.154;2023-07-20T09:25:06;6.72;;;2.53;;
74363;SDS011;62797;49.740;10.154;2023-07-20T09:27:39;4.95;;;1.80;;
74363;SDS011;62797;49.740;10.154;2023-07-20T09:30:07;6.90;;;2.08;;
74363;SDS011;62797;49.740;10.154;2023-07-20T09:32:44;4.68;;;2.22;;
74363;SDS011;62797;49.740;10.154;2023-07-20T09:35:17;4.90;;;2.25;;
74363;SDS011;62797;49.740;10.154;2023-07-20T09:40:20;8.52;;;1.98;;
74363;SDS011;62797;49.740;10.154;2023-07-20T09:42:46;4.97;;;2.03;;
74363;SDS011;62797;49.740;10.154;2023-07-20T09:45:16;3.03;;;1.58;;
74363;SDS011;62797;49.740;10.154;2023-07-20T09:47:43;2.33;;;1.52;;
74363;SDS011;62797;49.740;10.154;2023-07-20T09:50:09;4.82;;;2.17;;
74363;SDS011;62797;49.740;10.154;2023-07-20T09:52:38;7.22;;;2.17;;
74363;SDS011;62797;49.740;10.154;2023-07-20T09:55:09;3.22;;;1.73;;
74363;SDS011;62797;49.740;10.154;2023-07-20T09:57:44;3.75;;;1.58;;
74363;SDS011;62797;49.740;10.154;2023-07-20T10:00:10;6.22;;;2.35;;
74363;SDS011;62797;49.740;10.154;2023-07-20T10:02:47;5.35;;;2.17;;
74363;SDS011;62797;49.740;10.154;2023-07-20T10:05:18;8.65;;;1.92;;
74363;SDS011;62797;49.740;10.154;2023-07-20T10:07:47;3.80;;;1.75;;
74363;SDS011;62797;49.740;10.154;2023-07-20T10:10:17;3.28;;;2.40;;
74363;SDS011;62797;49.740;10.154;2023-07-20T10:12:44;4.30;;;2.15;;
74363;SDS011;62797;49.740;10.154;2023-07-20T10:15:20;5.47;;;1.90;;
74363;SDS011;62797;49.740;10.154;2023-07-20T10:18:09;2.13;;;1.77;;
74363;SDS011;62797;49.740;10.154;2023-07-20T10:20:51;4.32;;;2.00;;
74363;SDS011;62797;49.740;10.154;2023-07-20T10:23:19;9.05;;;2.65;;
74363;SDS011;62797;49.740;10.154;2023-07-20T10:25:48;7.72;;;2.47;;
74363;SDS011;62797;49.740;10.154;2023-07-20T10:28:15;4.88;;;1.98;;
74363;SDS011;62797;49.740;10.154;2023-07-20T10:30:41;12.05;;;1.85;;
74363;SDS011;62797;49.740;10.154;2023-07-20T10:33:07;5.53;;;1.80;;
74363;SDS011;62797;49.740;10.154;2023-07-20T10:35:53;3.45;;;1.77;;
74363;SDS011;62797;49.740;10.154;2023-07-20T10:38:38;2.67;;;1.60;;
74363;SDS011;62797;49.740;10.154;2023-07-20T10:41:17;9.65;;;2.55;;
74363;SDS011;62797;49.740;10.154;2023-07-20T10:43:57;3.47;;;2.08;;
74363;SDS011;62797;49.740;10.154;2023-07-20T10:46:41;2.83;;;1.67;;
74363;SDS011;62797;49.740;10.154;2023-07-20T10:49:10;2.67;;;1.77;;
74363;SDS011;62797;49.740;10.154;2023-07-20T10:51:44;4.78;;;2.00;;
74363;SDS011;62797;49.740;10.154;2023-07-20T10:56:47;1.55;;;1.45;;
74363;SDS011;62797;49.740;10.154;2023-07-20T11:01:54;3.35;;;1.65;;
74363;SDS011;62797;49.740;10.154;2023-07-20T11:07:36;2.75;;;1.65;;
74363;SDS011;62797;49.740;10.154;2023-07-20T11:10:15;4.43;;;1.90;;
74363;SDS011;62797;49.740;10.154;2023-07-20T11:13:02;6.75;;;2.50;;
74363;SDS011;62797;49.740;10.154;2023-07-20T11:15:45;5.20;;;1.90;;
74363;SDS011;62797;49.740;10.154;2023-07-20T11:18:12;7.65;;;2.17;;
74363;SDS011;62797;49.740;10.154;2023-07-20T11:23:04;6.35;;;2.30;;
74363;SDS011;62797;49.740;10.154;2023-07-20T11:25:39;2.47;;;1.55;;
74363;SDS011;62797;49.740;10.154;2023-07-20T11:28:09;6.25;;;1.55;;
74363;SDS011;62797;49.740;10.154;2023-07-20T11:30:38;5.15;;;1.92;;
74363;SDS011;62797;49.740;10.154;2023-07-20T11:33:04;5.07;;;1.73;;
74363;SDS011;62797;49.740;10.154;2023-07-20T11:35:36;2.88;;;2.05;;
74363;SDS011;62797;49.740;10.154;2023-07-20T11:38:08;1.80;;;1.58;;
74363;SDS011;62797;49.740;10.154;2023-07-20T11:43:03;9.48;;;1.88;;
74363;SDS011;62797;49.740;10.154;2023-07-20T11:45:29;4.97;;;1.70;;
74363;SDS011;62797;49.740;10.154;2023-07-20T11:47:58;2.00;;;1.40;;
74363;SDS011;62797;49.740;10.154;2023-07-20T11:50:26;4.30;;;1.65;;
74363;SDS011;62797;49.740;10.154;2023-07-20T11:52:52;2.85;;;1.50;;
74363;SDS011;62797;49.740;10.154;2023-07-20T11:55:20;4.28;;;1.55;;
74363;SDS011;62797;49.740;10.154;2023-07-20T12:00:28;3.33;;;1.58;;
74363;SDS011;62797;49.740;10.154;2023-07-20T12:02:54;2.40;;;1.55;;
74363;SDS011;62797;49.740;10.154;2023-07-20T12:05:23;3.38;;;1.90;;
74363;SDS011;62797;49.740;10.154;2023-07-20T12:07:49;4.05;;;1.85;;
74363;SDS011;62797;49.740;10.154;2023-07-20T12:10:22;4.72;;;1.42;;
74363;SDS011;62797;49.740;10.154;2023-07-20T12:12:53;4.32;;;1.60;;
74363;SDS011;62797;49.740;10.154;2023-07-20T12:15:22;3.83;;;1.90;;
74363;SDS011;62797;49.740;10.154;2023-07-20T12:17:50;1.90;;;1.65;;
74363;SDS011;62797;49.740;10.154;2023-07-20T12:21:19;9.98;;;1.75;;
74363;SDS011;62797;49.740;10.154;2023-07-20T12:23:23;2.00;;;1.33;;
74363;SDS011;62797;49.740;10.154;2023-07-20T12:25:52;3.13;;;1.27;;
74363;SDS011;62797;49.740;10.154;2023-07-20T12:28:19;8.57;;;1.92;;
74363;SDS011;62797;49.740;10.154;2023-07-20T12:30:45;2.42;;;1.50;;
74363;SDS011;62797;49.740;10.154;2023-07-20T12:33:16;5.05;;;1.33;;
74363;SDS011;62797;49.740;10.154;2023-07-20T12:35:42;4.80;;;1.60;;
74363;SDS011;62797;49.740;10.154;2023-07-20T12:38:08;3.95;;;1.52;;
74363;SDS011;62797;49.740;10.154;2023-07-20T12:40:34;2.60;;;1.38;;
74363;SDS011;62797;49.740;10.154;2023-07-20T12:43:01;2.38;;;1.33;;
74363;SDS011;62797;49.740;10.154;2023-07-20T12:45:27;2.53;;;1.58;;
74363;SDS011;62797;49.740;10.154;2023-07-20T12:47:53;6.30;;;1.27;;
74363;SDS011;62797;49.740;10.154;2023-07-20T12:50:18;1.27;;;1.13;;
74363;SDS011;62797;49.740;10.154;2023-07-20T12:52:44;2.90;;;1.58;;
74363;SDS011;62797;49.740;10.154;2023-07-20T12:55:10;2.67;;;1.38;;
74363;SDS011;62797;49.740;10.154;2023-07-20T12:57:36;4.03;;;1.55;;
74363;SDS011;62797;49.740;10.154;2023-07-20T13:00:03;2.08;;;1.10;;
74363;SDS011;62797;49.740;10.154;2023-07-20T13:02:31;2.20;;;1.67;;
74363;SDS011;62797;49.740;10.154;2023-07-20T13:04:57;3.17;;;1.77;;
74363;SDS011;62797;49.740;10.154;2023-07-20T13:07:29;1.85;;;1.23;;
74363;SDS011;62797;49.740;10.154;2023-07-20T13:09:59;3.10;;;1.42;;
74363;SDS011;62797;49.740;10.154;2023-07-20T13:12:26;7.68;;;2.10;;
74363;SDS011;62797;49.740;10.154;2023-07-20T13:14:52;3.17;;;1.50;;
74363;SDS011;62797;49.740;10.154;2023-07-20T13:17:19;6.90;;;1.35;;
74363;SDS011;62797;49.740;10.154;2023-07-20T13:19:44;3.38;;;1.80;;
74363;SDS011;62797;49.740;10.154;2023-07-20T13:22:10;4.28;;;1.83;;
74363;SDS011;62797;49.740;10.154;2023-07-20T13:24:36;6.82;;;1.80;;
74363;SDS011;62797;49.740;10.154;2023-07-20T13:27:02;6.03;;;1.10;;
74363;SDS011;62797;49.740;10.154;2023-07-20T13:29:28;4.03;;;1.20;;
74363;SDS011;62797;49.740;10.154;2023-07-20T13:31:53;1.42;;;1.10;;
74363;SDS011;62797;49.740;10.154;2023-07-20T13:34:19;1.88;;;1.42;;
74363;SDS011;62797;49.740;10.154;2023-07-20T13:36:45;2.38;;;1.08;;
74363;SDS011;62797;49.740;10.154;2023-07-20T13:39:10;1.48;;;1.27;;
74363;SDS011;62797;49.740;10.154;2023-07-20T13:41:36;2.20;;;1.13;;
74363;SDS011;62797;49.740;10.154;2023-07-20T13:44:13;2.05;;;1.20;;
74363;SDS011;62797;49.740;10.154;2023-07-20T13:46:39;5.68;;;1.83;;
74363;SDS011;62797;49.740;10.154;2023-07-20T13:49:04;2.05;;;1.13;;
74363;SDS011;62797;49.740;10.154;2023-07-20T13:51:30;6.13;;;1.50;;
74363;SDS011;62797;49.740;10.154;2023-07-20T13:53:56;1.77;;;1.45;;
74363;SDS011;62797;49.740;10.154;2023-07-20T13:56:23;3.28;;;1.48;;
74363;SDS011;62797;49.740;10.154;2023-07-20T13:58:49;1.83;;;1.42;;
74363;SDS011;62797;49.740;10.154;2023-07-20T14:01:16;2.28;;;1.58;;
74363;SDS011;62797;49.740;10.154;2023-07-20T14:03:46;2.40;;;1.17;;
74363;SDS011;62797;49.740;10.154;2023-07-20T14:06:11;1.83;;;1.42;;
74363;SDS011;62797;49.740;10.154;2023-07-20T14:08:38;6.47;;;2.42;;
74363;SDS011;62797;49.740;10.154;2023-07-20T14:11:06;3.90;;;1.42;;
74363;SDS011;62797;49.740;10.154;2023-07-20T14:13:32;1.58;;;1.23;;
74363;SDS011;62797;49.740;10.154;2023-07-20T14:15:58;5.45;;;1.23;;
74363;SDS011;62797;49.740;10.154;2023-07-20T14:18:24;1.77;;;1.17;;
74363;SDS011;62797;49.740;10.154;2023-07-20T14:20:49;2.08;;;1.15;;
74363;SDS011;62797;49.740;10.154;2023-07-20T14:23:15;4.32;;;1.60;;
74363;SDS011;62797;49.740;10.154;2023-07-20T14:25:43;4.78;;;1.60;;
74363;SDS011;62797;49.740;10.154;2023-07-20T14:28:09;4.15;;;1.73;;
74363;SDS011;62797;49.740;10.154;2023-07-20T14:30:37;4.38;;;1.73;;
74363;SDS011;62797;49.740;10.154;2023-07-20T14:33:03;3.90;;;1.30;;
74363;SDS011;62797;49.740;10.154;2023-07-20T14:35:29;3.08;;;1.15;;
74363;SDS011;62797;49.740;10.154;2023-07-20T14:37:55;2.63;;;1.20;;
74363;SDS011;62797;49.740;10.154;2023-07-20T14:40:20;1.25;;;1.15;;
74363;SDS011;62797;49.740;10.154;2023-07-20T14:42:46;3.90;;;1.92;;
74363;SDS011;62797;49.740;10.154;2023-07-20T14:45:12;5.20;;;1.73;;
74363;SDS011;62797;49.740;10.154;2023-07-20T14:47:38;6.20;;;1.50;;
74363;SDS011;62797;49.740;10.154;2023-07-20T14:50:08;1.52;;;1.40;;
74363;SDS011;62797;49.740;10.154;2023-07-20T14:52:34;2.55;;;1.48;;
74363;SDS011;62797;49.740;10.154;2023-07-20T14:55:00;4.05;;;1.30;;
74363;SDS011;62797;49.740;10.154;2023-07-20T14:59:52;1.92;;;1.13;;
74363;SDS011;62797;49.740;10.154;2023-07-20T15:02:18;2.92;;;1.63;;
74363;SDS011;62797;49.740;10.154;2023-07-20T15:04:48;1.35;;;1.20;;
74363;SDS011;62797;49.740;10.154;2023-07-20T15:07:18;2.80;;;1.42;;
74363;SDS011;62797;49.740;10.154;2023-07-20T15:09:45;3.92;;;2.05;;
74363;SDS011;62797;49.740;10.154;2023-07-20T15:12:13;1.45;;;1.20;;